sensor_id;sensor_type;location;lat;lon;timestamp;P1;durP1;ratioP1;P2;durP2;ratioP2
2662;SDS011;49701;48.072;7.800;2024-01-15T12:40:48;27.73;;;12.43;;
2662;SDS011;49701;48.072;7.800;2024-01-15T12:43:13;21.92;;;10.52;;
2662;SDS011;49701;48.072;7.800;2024-01-15T12:45:40;23.98;;;11.18;;
2662;SDS011;49701;48.072;7.800;2024-01-15T12:48:06;21.40;;;9.60;;
2662;SDS011;49701;48.072;7.800;2024-01-15T12:50:33;24.20;;;11.60;;
2662;SDS011;49701;48.072;7.800;2024-01-15T12:52:59;22.33;;;10.25;;
2662;SDS011;49701;48.072;7.800;2024-01-15T12:55:25;23.80;;;10.32;;
2662;SDS011;49701;48.072;7.800;2024-01-15T12:57:50;24.75;;;11.52;;
2662;SDS011;49701;48.072;7.800;2024-01-15T13:00:19;23.77;;;10.65;;
2662;SDS011;49701;48.072;7.800;2024-01-15T13:02:45;22.27;;;10.23;;
2662;SDS011;49701;48.072;7.800;2024-01-15T13:05:11;24.65;;;11.57;;
2662;SDS011;49701;48.072;7.800;2024-01-15T13:07:37;26.17;;;11.80;;
2662;SDS011;49701;48.072;7.800;2024-01-15T13:10:03;28.55;;;13.93;;
2662;SDS011;49701;48.072;7.800;2024-01-15T13:12:30;25.27;;;12.55;;
2662;SDS011;49701;48.072;7.800;2024-01-15T13:14:57;25.10;;;12.60;;
2662;SDS011;49701;48.072;7.800;2024-01-15T13:17:23;29.33;;;13.82;;
2662;SDS011;49701;48.072;7.800;2024-01-15T13:19:49;23.95;;;11.25;;
2662;SDS011;49701;48.072;7.800;2024-01-15T13:22:15;20.35;;;11.10;;
2662;SDS011;49701;48.072;7.800;2024-01-15T13:24:41;28.25;;;13.25;;
2662;SDS011;49701;48.072;7.800;2024-01-15T13:27:07;26.05;;;12.75;;
2662;SDS011;49701;48.072;7.800;2024-01-15T13:29:33;20.67;;;10.10;;
2662;SDS011;49701;48.072;7.800;2024-01-15T13:31:59;25.70;;;13.23;;
2662;SDS011;49701;48.072;7.800;2024-01-15T13:34:25;24.63;;;12.65;;
2662;SDS011;49701;48.072;7.800;2024-01-15T13:36:50;28.17;;;13.73;;
2662;SDS011;49701;48.072;7.800;2024-01-15T13:39:17;30.10;;;14.10;;
2662;SDS011;49701;48.072;7.800;2024-01-15T13:41:45;20.63;;;10.90;;
2662;SDS011;49701;48.072;7.800;2024-01-15T13:44:11;24.75;;;11.38;;
2662;SDS011;49701;48.072;7.800;2024-01-15T13:46:37;9.02;;;4.10;;
2662;SDS011;49701;48.072;7.800;2024-01-15T13:49:03;13.07;;;6.53;;
2662;SDS011;49701;48.072;7.800;2024-01-15T13:51:31;15.93;;;6.85;;
2662;SDS011;49701;48.072;7.800;2024-01-15T13:53:57;12.57;;;6.10;;
2662;SDS011;49701;48.072;7.800;2024-01-15T13:56:22;9.48;;;4.95;;
2662;SDS011;49701;48.072;7.800;2024-01-15T13:58:48;9.52;;;5.05;;
2662;SDS011;49701;48.072;7.800;2024-01-15T14:01:15;10.23;;;5.35;;
2662;SDS011;49701;48.072;7.800;2024-01-15T14:03:42;11.20;;;5.28;;
2662;SDS011;49701;48.072;7.800;2024-01-15T14:06:08;11.52;;;5.82;;
2662;SDS011;49701;48.072;7.800;2024-01-15T14:08:34;14.48;;;7.18;;
2662;SDS011;49701;48.072;7.800;2024-01-15T14:11:01;13.82;;;6.97;;
2662;SDS011;49701;48.072;7.800;2024-01-15T14:13:28;14.40;;;7.03;;
2662;SDS011;49701;48.072;7.800;2024-01-15T14:15:53;17.00;;;7.72;;
2662;SDS011;49701;48.072;7.800;2024-01-15T14:18:20;19.73;;;8.98;;
2662;SDS011;49701;48.072;7.800;2024-01-15T14:20:46;13.20;;;6.95;;
2662;SDS011;49701;48.072;7.800;2024-01-15T14:23:12;15.63;;;7.18;;
2662;SDS011;49701;48.072;7.800;2024-01-15T14:25:39;16.65;;;8.02;;
2662;SDS011;49701;48.072;7.800;2024-01-15T14:28:04;15.00;;;7.65;;
2662;SDS011;49701;48.072;7.800;2024-01-15T14:30:31;13.90;;;7.30;;
2662;SDS011;49701;48.072;7.800;2024-01-15T14:32:57;14.85;;;7.90;;
2662;SDS011;49701;48.072;7.800;2024-01-15T14:35:23;15.50;;;8.25;;
2662;SDS011;49701;48.072;7.800;2024-01-15T14:37:49;16.02;;;7.50;;
2662;SDS011;49701;48.072;7.800;2024-01-15T14:40:14;16.00;;;7.20;;
2662;SDS011;49701;48.072;7.800;2024-01-15T14:42:41;14.15;;;7.32;;
2662;SDS011;49701;48.072;7.800;2024-01-15T14:45:07;18.33;;;7.60;;
2662;SDS011;49701;48.072;7.800;2024-01-15T14:47:39;19.33;;;9.10;;
2662;SDS011;49701;48.072;7.800;2024-01-15T14:50:06;21.90;;;10.27;;
2662;SDS011;49701;48.072;7.800;2024-01-15T14:52:33;23.40;;;10.30;;
2662;SDS011;49701;48.072;7.800;2024-01-15T14:54:59;24.05;;;11.00;;
2662;SDS011;49701;48.072;7.800;2024-01-15T14:57:25;25.88;;;12.68;;
2662;SDS011;49701;48.072;7.800;2024-01-15T14:59:51;25.80;;;11.55;;
2662;SDS011;49701;48.072;7.800;2024-01-15T15:02:17;27.90;;;11.68;;
2662;SDS011;49701;48.072;7.800;2024-01-15T15:04:43;22.35;;;10.45;;
2662;SDS011;49701;48.072;7.800;2024-01-15T15:07:09;25.58;;;11.52;;
2662;SDS011;49701;48.072;7.800;2024-01-15T15:09:35;36.20;;;14.65;;
2662;SDS011;49701;48.072;7.800;2024-01-15T15:12:03;32.80;;;15.70;;
2662;SDS011;49701;48.072;7.800;2024-01-15T15:14:30;31.70;;;14.70;;
2662;SDS011;49701;48.072;7.800;2024-01-15T15:16:57;30.52;;;14.02;;
2662;SDS011;49701;48.072;7.800;2024-01-15T15:19:23;31.73;;;14.02;;
2662;SDS011;49701;48.072;7.800;2024-01-15T15:21:48;31.88;;;15.20;;
2662;SDS011;49701;48.072;7.800;2024-01-15T15:24:14;29.92;;;15.43;;
2662;SDS011;49701;48.072;7.800;2024-01-15T15:26:40;29.40;;;14.60;;
2662;SDS011;49701;48.072;7.800;2024-01-15T15:29:06;32.60;;;15.75;;
2662;SDS011;49701;48.072;7.800;2024-01-15T15:31:32;32.17;;;15.05;;
2662;SDS011;49701;48.072;7.800;2024-01-15T15:33:57;33.85;;;15.38;;
2662;SDS011;49701;48.072;7.800;2024-01-15T15:36:23;32.17;;;14.75;;
2662;SDS011;49701;48.072;7.800;2024-01-15T15:38:49;33.72;;;16.10;;
2662;SDS011;49701;48.072;7.800;2024-01-15T15:41:14;35.33;;;16.50;;
2662;SDS011;49701;48.072;7.800;2024-01-15T15:43:40;31.45;;;14.48;;
2662;SDS011;49701;48.072;7.800;2024-01-15T15:46:06;31.58;;;14.75;;
2662;SDS011;49701;48.072;7.800;2024-01-15T15:48:32;34.28;;;17.15;;
2662;SDS011;49701;48.072;7.800;2024-01-15T15:50:57;38.47;;;16.90;;
2662;SDS011;49701;48.072;7.800;2024-01-15T15:53:25;34.40;;;16.42;;
2662;SDS011;49701;48.072;7.800;2024-01-15T15:55:50;36.08;;;17.15;;
2662;SDS011;49701;48.072;7.800;2024-01-15T15:58:17;29.80;;;12.43;;
2662;SDS011;49701;48.072;7.800;2024-01-15T16:00:42;36.53;;;16.70;;
2662;SDS011;49701;48.072;7.800;2024-01-15T16:03:08;34.40;;;14.13;;
2662;SDS011;49701;48.072;7.800;2024-01-15T16:05:34;35.63;;;15.38;;
2662;SDS011;49701;48.072;7.800;2024-01-15T16:08:00;38.85;;;17.70;;
2662;SDS011;49701;48.072;7.800;2024-01-15T16:10:25;37.15;;;17.17;;
2662;SDS011;49701;48.072;7.800;2024-01-15T16:12:51;36.28;;;16.15;;
2662;SDS011;49701;48.072;7.800;2024-01-15T16:15:20;33.97;;;16.63;;
2662;SDS011;49701;48.072;7.800;2024-01-15T16:17:49;32.45;;;14.27;;
2662;SDS011;49701;48.072;7.800;2024-01-15T16:20:16;30.73;;;13.60;;
2662;SDS011;49701;48.072;7.800;2024-01-15T16:22:43;37.58;;;17.80;;
2662;SDS011;49701;48.072;7.800;2024-01-15T16:25:09;40.55;;;17.80;;
2662;SDS011;49701;48.072;7.800;2024-01-15T16:27:35;37.35;;;16.95;;
2662;SDS011;49701;48.072;7.800;2024-01-15T16:30:02;37.80;;;17.23;;
2662;SDS011;49701;48.072;7.800;2024-01-15T16:32:29;38.22;;;17.55;;
2662;SDS011;49701;48.072;7.800;2024-01-15T16:34:55;39.38;;;19.02;;
2662;SDS011;49701;48.072;7.800;2024-01-15T16:37:21;39.97;;;18.85;;
2662;SDS011;49701;48.072;7.800;2024-01-15T16:39:46;40.97;;;19.50;;
2662;SDS011;49701;48.072;7.800;2024-01-15T16:42:12;39.72;;;18.33;;
2662;SDS011;49701;48.072;7.800;2024-01-15T16:44:38;41.30;;;19.05;;
2662;SDS011;49701;48.072;7.800;2024-01-15T16:47:04;43.30;;;19.38;;
2662;SDS011;49701;48.072;7.800;2024-01-15T16:49:30;43.45;;;18.75;;
2662;SDS011;49701;48.072;7.800;2024-01-15T16:51:56;36.92;;;16.25;;
2662;SDS011;49701;48.072;7.800;2024-01-15T16:54:22;42.95;;;19.65;;
2662;SDS011;49701;48.072;7.800;2024-01-15T16:56:48;44.88;;;19.48;;
2662;SDS011;49701;48.072;7.800;2024-01-15T16:59:15;39.58;;;19.25;;
2662;SDS011;49701;48.072;7.800;2024-01-15T17:01:41;40.90;;;20.40;;
2662;SDS011;49701;48.072;7.800;2024-01-15T17:04:07;42.17;;;19.83;;
2662;SDS011;49701;48.072;7.800;2024-01-15T17:06:33;42.30;;;17.67;;
2662;SDS011;49701;48.072;7.800;2024-01-15T17:08:59;37.63;;;17.83;;
2662;SDS011;49701;48.072;7.800;2024-01-15T17:11:24;42.13;;;18.33;;
2662;SDS011;49701;48.072;7.800;2024-01-15T17:13:51;38.75;;;17.58;;
2662;SDS011;49701;48.072;7.800;2024-01-15T17:16:17;36.33;;;17.13;;
2662;SDS011;49701;48.072;7.800;2024-01-15T17:18:43;39.13;;;18.10;;
2662;SDS011;49701;48.072;7.800;2024-01-15T17:21:09;41.47;;;18.17;;
2662;SDS011;49701;48.072;7.800;2024-01-15T17:23:35;36.70;;;17.38;;
2662;SDS011;49701;48.072;7.800;2024-01-15T17:26:01;38.53;;;18.42;;
2662;SDS011;49701;48.072;7.800;2024-01-15T17:28:27;39.60;;;17.73;;
2662;SDS011;49701;48.072;7.800;2024-01-15T17:30:53;38.17;;;18.40;;
2662;SDS011;49701;48.072;7.800;2024-01-15T17:33:19;36.63;;;16.38;;
2662;SDS011;49701;48.072;7.800;2024-01-15T17:35:51;38.50;;;18.02;;
2662;SDS011;49701;48.072;7.800;2024-01-15T17:38:18;28.05;;;13.35;;
2662;SDS011;49701;48.072;7.800;2024-01-15T17:40:44;26.35;;;12.23;;
2662;SDS011;49701;48.072;7.800;2024-01-15T17:43:10;24.35;;;10.05;;
2662;SDS011;49701;48.072;7.800;2024-01-15T17:45:36;16.92;;;7.75;;
2662;SDS011;49701;48.072;7.800;2024-01-15T17:48:02;12.57;;;5.50;;
2662;SDS011;49701;48.072;7.800;2024-01-15T17:50:28;10.95;;;5.38;;
2662;SDS011;49701;48.072;7.800;2024-01-15T17:52:54;9.05;;;4.72;;
2662;SDS011;49701;48.072;7.800;2024-01-15T17:55:21;11.70;;;4.65;;
2662;SDS011;49701;48.072;7.800;2024-01-15T17:57:48;8.13;;;3.50;;
2662;SDS011;49701;48.072;7.800;2024-01-15T18:00:14;10.05;;;4.25;;
2662;SDS011;49701;48.072;7.800;2024-01-15T18:02:40;10.55;;;6.53;;
2662;SDS011;49701;48.072;7.800;2024-01-15T18:05:06;8.98;;;4.38;;
2662;SDS011;49701;48.072;7.800;2024-01-15T18:07:32;10.13;;;4.28;;
2662;SDS011;49701;48.072;7.800;2024-01-15T18:09:58;9.15;;;3.85;;
2662;SDS011;49701;48.072;7.800;2024-01-15T18:12:24;7.28;;;3.35;;
2662;SDS011;49701;48.072;7.800;2024-01-15T18:14:50;8.40;;;3.88;;
2662;SDS011;49701;48.072;7.800;2024-01-15T18:17:16;6.63;;;3.83;;
2662;SDS011;49701;48.072;7.800;2024-01-15T18:19:42;29.42;;;11.55;;
2662;SDS011;49701;48.072;7.800;2024-01-15T18:22:08;25.30;;;10.95;;
2662;SDS011;49701;48.072;7.800;2024-01-15T18:24:35;24.13;;;11.07;;
2662;SDS011;49701;48.072;7.800;2024-01-15T18:27:00;20.45;;;9.52;;
2662;SDS011;49701;48.072;7.800;2024-01-15T18:29:28;19.35;;;9.30;;
2662;SDS011;49701;48.072;7.800;2024-01-15T18:31:54;23.35;;;9.80;;
2662;SDS011;49701;48.072;7.800;2024-01-15T18:34:20;23.08;;;9.20;;
2662;SDS011;49701;48.072;7.800;2024-01-15T18:36:46;11.93;;;6.10;;
2662;SDS011;49701;48.072;7.800;2024-01-15T18:39:14;11.05;;;5.22;;
2662;SDS011;49701;48.072;7.800;2024-01-15T18:41:42;8.13;;;4.30;;
2662;SDS011;49701;48.072;7.800;2024-01-15T18:44:09;7.95;;;4.22;;
2662;SDS011;49701;48.072;7.800;2024-01-15T18:46:38;8.07;;;4.00;;
2662;SDS011;49701;48.072;7.800;2024-01-15T18:49:11;7.50;;;3.55;;
2662;SDS011;49701;48.072;7.800;2024-01-15T18:51:37;4.85;;;3.30;;
2662;SDS011;49701;48.072;7.800;2024-01-15T18:54:03;5.93;;;3.38;;
2662;SDS011;49701;48.072;7.800;2024-01-15T18:56:31;7.35;;;3.30;;
2662;SDS011;49701;48.072;7.800;2024-01-15T18:59:00;6.50;;;3.58;;
2662;SDS011;49701;48.072;7.800;2024-01-15T19:01:27;17.05;;;7.22;;
2662;SDS011;49701;48.072;7.800;2024-01-15T19:03:57;15.55;;;6.60;;
2662;SDS011;49701;48.072;7.800;2024-01-15T19:06:24;9.15;;;5.40;;
2662;SDS011;49701;48.072;7.800;2024-01-15T19:08:51;11.07;;;6.70;;
2662;SDS011;49701;48.072;7.800;2024-01-15T19:11:17;15.00;;;6.25;;
2662;SDS011;49701;48.072;7.800;2024-01-15T19:13:43;14.57;;;7.13;;
2662;SDS011;49701;48.072;7.800;2024-01-15T19:16:09;14.18;;;7.00;;
2662;SDS011;49701;48.072;7.800;2024-01-15T19:18:36;12.13;;;7.03;;
2662;SDS011;49701;48.072;7.800;2024-01-15T19:21:02;17.73;;;9.05;;
2662;SDS011;49701;48.072;7.800;2024-01-15T19:23:28;18.15;;;9.90;;
2662;SDS011;49701;48.072;7.800;2024-01-15T19:25:54;22.35;;;12.00;;
2662;SDS011;49701;48.072;7.800;2024-01-15T19:28:20;21.40;;;10.30;;
2662;SDS011;49701;48.072;7.800;2024-01-15T19:30:46;16.35;;;10.88;;
2662;SDS011;49701;48.072;7.800;2024-01-15T19:33:19;21.13;;;10.63;;
2662;SDS011;49701;48.072;7.800;2024-01-15T19:35:44;15.60;;;8.68;;
2662;SDS011;49701;48.072;7.800;2024-01-15T19:38:12;14.45;;;7.82;;
2662;SDS011;49701;48.072;7.800;2024-01-15T19:40:38;16.42;;;7.05;;
2662;SDS011;49701;48.072;7.800;2024-01-15T19:43:04;16.05;;;7.82;;
2662;SDS011;49701;48.072;7.800;2024-01-15T19:45:29;16.58;;;8.00;;
2662;SDS011;49701;48.072;7.800;2024-01-15T19:47:55;19.77;;;8.68;;
2662;SDS011;49701;48.072;7.800;2024-01-15T19:50:21;13.82;;;8.43;;
2662;SDS011;49701;48.072;7.800;2024-01-15T19:52:47;18.25;;;8.88;;
2662;SDS011;49701;48.072;7.800;2024-01-15T19:55:13;19.98;;;9.63;;
2662;SDS011;49701;48.072;7.800;2024-01-15T19:57:39;20.90;;;11.18;;
2662;SDS011;49701;48.072;7.800;2024-01-15T20:00:06;22.45;;;10.93;;
2662;SDS011;49701;48.072;7.800;2024-01-15T20:02:36;23.95;;;11.70;;
2662;SDS011;49701;48.072;7.800;2024-01-15T20:05:02;21.63;;;10.82;;
2662;SDS011;49701;48.072;7.800;2024-01-15T20:07:31;23.85;;;10.60;;
2662;SDS011;49701;48.072;7.800;2024-01-15T20:09:56;20.45;;;11.02;;
2662;SDS011;49701;48.072;7.800;2024-01-15T20:12:22;23.33;;;10.82;;
2662;SDS011;49701;48.072;7.800;2024-01-15T20:14:48;21.42;;;10.98;;
2662;SDS011;49701;48.072;7.800;2024-01-15T20:17:17;30.73;;;15.63;;
2662;SDS011;49701;48.072;7.800;2024-01-15T20:19:42;26.52;;;13.73;;
2662;SDS011;49701;48.072;7.800;2024-01-15T20:22:08;33.72;;;15.10;;
2662;SDS011;49701;48.072;7.800;2024-01-15T20:24:34;34.15;;;14.45;;
2662;SDS011;49701;48.072;7.800;2024-01-15T20:27:00;23.67;;;11.93;;
2662;SDS011;49701;48.072;7.800;2024-01-15T20:29:29;23.90;;;12.30;;
2662;SDS011;49701;48.072;7.800;2024-01-15T20:31:55;28.55;;;13.55;;
2662;SDS011;49701;48.072;7.800;2024-01-15T20:34:21;26.67;;;13.50;;
2662;SDS011;49701;48.072;7.800;2024-01-15T20:36:51;21.40;;;10.88;;
2662;SDS011;49701;48.072;7.800;2024-01-15T20:39:17;25.52;;;11.00;;
2662;SDS011;49701;48.072;7.800;2024-01-15T20:41:42;22.17;;;9.48;;
2662;SDS011;49701;48.072;7.800;2024-01-15T20:44:08;21.10;;;8.88;;
2662;SDS011;49701;48.072;7.800;2024-01-15T20:46:34;30.88;;;11.57;;
2662;SDS011;49701;48.072;7.800;2024-01-15T20:49:00;38.53;;;17.83;;
2662;SDS011;49701;48.072;7.800;2024-01-15T20:51:26;33.70;;;14.38;;
2662;SDS011;49701;48.072;7.800;2024-01-15T20:53:51;21.85;;;11.38;;
2662;SDS011;49701;48.072;7.800;2024-01-15T20:56:18;21.45;;;10.60;;
2662;SDS011;49701;48.072;7.800;2024-01-15T20:58:44;19.65;;;10.90;;
2662;SDS011;49701;48.072;7.800;2024-01-15T21:01:10;23.85;;;11.88;;
2662;SDS011;49701;48.072;7.800;2024-01-15T21:03:36;21.52;;;10.80;;
2662;SDS011;49701;48.072;7.800;2024-01-15T21:06:05;21.35;;;10.88;;
2662;SDS011;49701;48.072;7.800;2024-01-15T21:08:30;23.42;;;10.98;;
2662;SDS011;49701;48.072;7.800;2024-01-15T21:10:56;21.58;;;10.90;;
2662;SDS011;49701;48.072;7.800;2024-01-15T21:13:22;29.35;;;12.52;;
2662;SDS011;49701;48.072;7.800;2024-01-15T21:15:48;24.48;;;12.15;;
2662;SDS011;49701;48.072;7.800;2024-01-15T21:18:13;25.40;;;12.30;;
2662;SDS011;49701;48.072;7.800;2024-01-15T21:20:42;22.50;;;10.68;;
2662;SDS011;49701;48.072;7.800;2024-01-15T21:23:09;20.98;;;9.95;;
2662;SDS011;49701;48.072;7.800;2024-01-15T21:25:35;24.85;;;10.13;;
2662;SDS011;49701;48.072;7.800;2024-01-15T21:28:01;22.38;;;10.48;;
2662;SDS011;49701;48.072;7.800;2024-01-15T21:30:28;24.08;;;11.50;;
2662;SDS011;49701;48.072;7.800;2024-01-15T21:32:53;25.10;;;11.85;;
2662;SDS011;49701;48.072;7.800;2024-01-15T21:35:19;33.65;;;14.80;;
2662;SDS011;49701;48.072;7.800;2024-01-15T21:37:45;26.83;;;12.68;;
2662;SDS011;49701;48.072;7.800;2024-01-15T21:40:10;30.52;;;14.68;;
2662;SDS011;49701;48.072;7.800;2024-01-15T21:42:36;28.77;;;14.02;;
2662;SDS011;49701;48.072;7.800;2024-01-15T21:45:03;25.40;;;12.02;;
2662;SDS011;49701;48.072;7.800;2024-01-15T21:47:32;27.13;;;12.63;;
2662;SDS011;49701;48.072;7.800;2024-01-15T21:49:58;30.70;;;12.20;;
2662;SDS011;49701;48.072;7.800;2024-01-15T21:52:24;26.75;;;12.63;;
2662;SDS011;49701;48.072;7.800;2024-01-15T21:54:50;25.52;;;11.60;;
2662;SDS011;49701;48.072;7.800;2024-01-15T21:57:15;25.75;;;12.77;;
2662;SDS011;49701;48.072;7.800;2024-01-15T21:59:41;26.35;;;12.35;;
2662;SDS011;49701;48.072;7.800;2024-01-15T22:02:07;31.73;;;14.13;;
2662;SDS011;49701;48.072;7.800;2024-01-15T22:04:36;30.83;;;13.90;;
2662;SDS011;49701;48.072;7.800;2024-01-15T22:07:02;30.85;;;14.63;;
2662;SDS011;49701;48.072;7.800;2024-01-15T22:09:31;32.78;;;14.52;;
2662;SDS011;49701;48.072;7.800;2024-01-15T22:11:57;32.08;;;14.43;;
2662;SDS011;49701;48.072;7.800;2024-01-15T22:14:24;30.27;;;14.55;;
2662;SDS011;49701;48.072;7.800;2024-01-15T22:16:50;32.35;;;14.93;;
2662;SDS011;49701;48.072;7.800;2024-01-15T22:19:15;31.63;;;14.93;;
2662;SDS011;49701;48.072;7.800;2024-01-15T22:21:44;34.75;;;14.63;;
2662;SDS011;49701;48.072;7.800;2024-01-15T22:24:11;27.75;;;13.15;;
2662;SDS011;49701;48.072;7.800;2024-01-15T22:26:37;30.13;;;13.57;;
2662;SDS011;49701;48.072;7.800;2024-01-15T22:29:03;26.83;;;12.98;;
2662;SDS011;49701;48.072;7.800;2024-01-15T22:31:29;34.97;;;14.18;;
2662;SDS011;49701;48.072;7.800;2024-01-15T22:33:55;34.88;;;16.15;;
2662;SDS011;49701;48.072;7.800;2024-01-15T22:36:20;32.08;;;15.77;;
2662;SDS011;49701;48.072;7.800;2024-01-15T22:38:46;35.53;;;15.98;;
2662;SDS011;49701;48.072;7.800;2024-01-15T22:41:13;37.17;;;17.08;;
2662;SDS011;49701;48.072;7.800;2024-01-15T22:43:40;36.30;;;16.73;;
2662;SDS011;49701;48.072;7.800;2024-01-15T22:46:05;42.20;;;16.92;;
2662;SDS011;49701;48.072;7.800;2024-01-15T22:48:31;39.75;;;16.60;;
2662;SDS011;49701;48.072;7.800;2024-01-15T22:50:57;39.28;;;16.00;;
2662;SDS011;49701;48.072;7.800;2024-01-15T22:53:23;40.13;;;17.20;;
2662;SDS011;49701;48.072;7.800;2024-01-15T22:55:48;36.70;;;16.05;;
2662;SDS011;49701;48.072;7.800;2024-01-15T22:58:15;32.70;;;15.18;;
2662;SDS011;49701;48.072;7.800;2024-01-15T23:00:40;38.50;;;14.93;;
2662;SDS011;49701;48.072;7.800;2024-01-15T23:03:09;36.65;;;15.32;;
2662;SDS011;49701;48.072;7.800;2024-01-15T23:05:35;35.13;;;15.20;;
2662;SDS011;49701;48.072;7.800;2024-01-15T23:08:01;33.30;;;15.20;;
2662;SDS011;49701;48.072;7.800;2024-01-15T23:10:27;32.60;;;15.43;;
